createdAt,value
2018-09-01T00:01:50.479Z,2.50
2018-09-01T00:04:21.111Z,3.22
2018-09-01T00:06:51.791Z,3.20
2018-09-01T00:09:22.464Z,2.95
2018-09-01T00:11:53.147Z,3.33
2018-09-01T00:14:23.786Z,2.83
2018-09-01T00:16:54.463Z,3.35
2018-09-01T00:19:25.117Z,3.58
2018-09-01T00:21:55.794Z,3.05
2018-09-01T00:24:27.230Z,3.00
2018-09-01T00:26:57.895Z,3.05
2018-09-01T00:29:28.599Z,3.27
2018-09-01T00:31:59.248Z,3.15
2018-09-01T00:34:29.956Z,3.02
2018-09-01T00:37:00.600Z,3.35
2018-09-01T00:39:31.275Z,3.20
2018-09-01T00:42:01.957Z,3.10
2018-09-01T00:44:32.644Z,3.12
2018-09-01T00:47:03.635Z,2.92
2018-09-01T00:49:34.312Z,3.30
2018-09-01T00:52:05.348Z,3.17
2018-09-01T00:54:35.999Z,3.10
2018-09-01T00:57:06.717Z,3.05
2018-09-01T00:59:37.359Z,3.55
2018-09-01T01:02:08.041Z,2.90
2018-09-01T01:04:38.691Z,3.33
2018-09-01T01:07:09.679Z,3.17
2018-09-01T01:09:40.343Z,3.27
2018-09-01T01:12:11.028Z,3.30
2018-09-01T01:14:41.727Z,2.90
2018-09-01T01:17:12.388Z,3.25
2018-09-01T01:19:43.084Z,3.10
2018-09-01T01:22:13.737Z,3.05
2018-09-01T01:24:44.411Z,3.60
2018-09-01T01:27:15.412Z,3.08
2018-09-01T01:29:46.096Z,3.08
2018-09-01T01:32:16.767Z,3.22
2018-09-01T01:34:47.474Z,3.45
2018-09-01T01:37:18.116Z,3.42
2018-09-01T01:39:48.819Z,3.33
2018-09-01T01:42:20.257Z,3.22
2018-09-01T01:44:50.928Z,3.42
2018-09-01T01:47:21.732Z,3.20
2018-09-01T01:49:52.404Z,3.12
2018-09-01T01:52:23.049Z,3.50
2018-09-01T01:54:53.832Z,3.20
2018-09-01T01:57:24.547Z,3.62
2018-09-01T01:59:55.260Z,3.98
2018-09-01T02:02:25.944Z,3.25
2018-09-01T02:04:56.619Z,3.40
2018-09-01T02:07:27.280Z,3.02
2018-09-01T02:09:57.947Z,3.27
2018-09-01T02:12:28.603Z,3.62
2018-09-01T02:14:59.280Z,3.30
2018-09-01T02:17:29.978Z,4.20
2018-09-01T02:20:00.664Z,3.40
2018-09-01T02:22:31.628Z,3.40
2018-09-01T02:25:02.445Z,3.72
2018-09-01T02:27:33.123Z,3.52
2018-09-01T02:30:03.855Z,3.37
2018-09-01T02:32:34.725Z,3.20
2018-09-01T02:35:05.389Z,4.15
2018-09-01T02:37:36.261Z,3.10
2018-09-01T02:40:07.287Z,3.10
2018-09-01T02:42:37.960Z,3.67
2018-09-01T02:45:08.635Z,3.50
2018-09-01T02:47:39.320Z,3.40
2018-09-01T02:50:10.195Z,3.85
2018-09-01T02:52:40.843Z,3.37
2018-09-01T02:55:11.764Z,3.62
2018-09-01T02:57:42.419Z,3.60
2018-09-01T03:00:18.632Z,3.77
2018-09-01T03:02:49.325Z,3.95
2018-09-01T03:05:20.004Z,3.65
2018-09-01T03:07:50.700Z,3.90
2018-09-01T03:10:21.376Z,4.03
2018-09-01T03:12:52.050Z,3.60
2018-09-01T03:15:22.732Z,3.70
2018-09-01T03:17:53.756Z,4.25
2018-09-01T03:20:24.427Z,4.30
2018-09-01T03:22:55.083Z,4.03
2018-09-01T03:25:25.759Z,4.20
2018-09-01T03:27:56.416Z,3.72
2018-09-01T03:30:27.103Z,3.83
2018-09-01T03:32:57.972Z,3.62
2018-09-01T03:35:28.659Z,3.30
2018-09-01T03:37:59.642Z,3.67
2018-09-01T03:40:30.322Z,3.77
2018-09-01T03:43:01.015Z,4.20
2018-09-01T03:45:31.663Z,3.35
2018-09-01T03:48:02.385Z,3.72
2018-09-01T03:50:33.047Z,4.28
2018-09-01T03:53:04.068Z,3.75
2018-09-01T03:55:34.760Z,4.00
2018-09-01T03:58:06.057Z,4.28
2018-09-01T04:00:36.769Z,3.62
2018-09-01T04:03:07.413Z,3.47
2018-09-01T04:05:38.097Z,3.92
2018-09-01T04:08:08.759Z,3.87
2018-09-01T04:10:39.452Z,3.75
2018-09-01T04:13:10.109Z,3.80
2018-09-01T04:15:40.954Z,3.85
2018-09-01T04:18:11.609Z,3.95
2018-09-01T04:20:42.707Z,3.52
2018-09-01T04:23:13.432Z,3.92
2018-09-01T04:25:44.178Z,3.98
2018-09-01T04:28:14.819Z,3.60
2018-09-01T04:30:46.484Z,3.62
2018-09-01T04:33:17.173Z,3.60
2018-09-01T04:35:52.612Z,4.12
2018-09-01T04:38:23.316Z,3.50
2018-09-01T04:40:53.993Z,3.72
2018-09-01T04:43:24.671Z,3.75
2018-09-01T04:45:55.319Z,4.33
2018-09-01T04:51:02.984Z,3.58
2018-09-01T04:53:33.664Z,4.15
2018-09-01T04:56:04.311Z,3.95
2018-09-01T04:58:35.001Z,4.35
2018-09-01T05:01:05.733Z,3.90
2018-09-01T05:03:36.544Z,4.00
2018-09-01T05:06:07.193Z,3.85
2018-09-01T05:08:37.868Z,3.60
2018-09-01T05:11:08.530Z,4.08
2018-09-01T05:13:39.201Z,4.42
2018-09-01T05:16:09.903Z,3.85
2018-09-01T05:18:40.626Z,4.05
2018-09-01T05:21:11.306Z,4.05
2018-09-01T05:23:41.984Z,4.03
2018-09-01T05:26:12.644Z,4.20
2018-09-01T05:28:43.575Z,3.95
2018-09-01T05:31:14.243Z,3.85
2018-09-01T05:33:45.148Z,3.77
2018-09-01T05:36:15.241Z,3.87
2018-09-01T05:38:45.926Z,3.95
2018-09-01T05:41:16.803Z,4.95
2018-09-01T05:43:47.581Z,4.05
2018-09-01T05:46:18.324Z,4.33
2018-09-01T05:48:49.008Z,4.00
2018-09-01T05:51:19.656Z,4.10
2018-09-01T05:53:50.523Z,4.65
2018-09-01T05:56:21.167Z,4.15
2018-09-01T05:58:51.848Z,4.08
2018-09-01T06:01:22.517Z,5.05
2018-09-01T06:03:53.240Z,5.53
2018-09-01T06:06:23.898Z,4.83
2018-09-01T06:08:54.768Z,4.97
2018-09-01T06:11:25.424Z,4.78
2018-09-01T06:13:56.088Z,4.40
2018-09-01T06:16:26.727Z,5.30
2018-09-01T06:18:57.405Z,5.15
2018-09-01T06:21:28.069Z,5.47
2018-09-01T06:23:58.790Z,5.33
2018-09-01T06:26:29.693Z,5.25
2018-09-01T06:29:16.304Z,5.08
2018-09-01T06:32:07.319Z,5.58
2018-09-01T06:34:37.978Z,5.55
2018-09-01T06:37:08.652Z,5.78
2018-09-01T06:39:39.312Z,4.62
2018-09-01T06:42:10.049Z,5.17
2018-09-01T06:44:40.930Z,5.45
2018-09-01T06:47:11.623Z,5.40
2018-09-01T06:49:42.303Z,5.35
2018-09-01T06:52:12.943Z,5.65
2018-09-01T06:54:43.630Z,6.28
2018-09-01T06:57:14.324Z,6.58
2018-09-01T06:59:45.929Z,6.10
2018-09-01T07:02:17.523Z,6.30
2018-09-01T07:04:48.211Z,6.97
2018-09-01T07:07:18.879Z,6.40
2018-09-01T07:09:49.572Z,5.97
2018-09-01T07:12:20.225Z,5.53
2018-09-01T07:14:51.112Z,7.37
2018-09-01T07:17:21.833Z,7.53
2018-09-01T07:19:52.515Z,6.50
2018-09-01T07:22:23.194Z,6.42
2018-09-01T07:24:53.846Z,6.30
2018-09-01T07:27:24.536Z,6.30
2018-09-01T07:29:55.220Z,6.92
2018-09-01T07:32:25.908Z,6.37
2018-09-01T07:34:56.616Z,6.62
2018-09-01T07:37:27.350Z,6.30
2018-09-01T07:39:58.051Z,6.42
2018-09-01T07:42:28.766Z,7.03
2018-09-01T07:44:59.470Z,6.80
2018-09-01T07:47:30.148Z,7.12
2018-09-01T07:50:07.406Z,6.20
2018-09-01T07:52:38.230Z,6.22
2018-09-01T07:55:08.929Z,6.90
2018-09-01T07:57:39.797Z,6.05
2018-09-01T08:00:10.515Z,5.60
2018-09-01T08:02:41.375Z,6.75
2018-09-01T08:05:12.072Z,6.70
2018-09-01T08:07:42.778Z,6.65
2018-09-01T08:10:13.440Z,5.35
2018-09-01T08:12:44.140Z,7.08
2018-09-01T08:15:14.818Z,6.90
2018-09-01T08:17:45.482Z,6.92
2018-09-01T08:20:16.214Z,6.67
2018-09-01T08:22:47.082Z,6.90
2018-09-01T08:25:17.810Z,5.87
2018-09-01T08:27:48.459Z,6.85
2018-09-01T08:30:19.183Z,5.05
2018-09-01T08:32:50.413Z,6.53
2018-09-01T08:35:21.084Z,6.37
2018-09-01T08:37:51.743Z,5.45
2018-09-01T08:40:22.476Z,5.62
2018-09-01T08:42:53.320Z,6.10
2018-09-01T08:45:24.069Z,6.08
2018-09-01T08:47:54.865Z,5.45
2018-09-01T08:50:25.545Z,4.87
2018-09-01T08:52:56.224Z,4.58
2018-09-01T08:55:26.906Z,4.12
2018-09-01T08:57:57.628Z,4.75
2018-09-01T09:00:28.403Z,4.15
2018-09-01T09:02:59.079Z,4.67
2018-09-01T09:05:30.041Z,3.87
2018-09-01T09:08:00.836Z,3.90
2018-09-01T09:10:31.486Z,3.67
2018-09-01T09:13:02.179Z,3.25
2018-09-01T09:15:33.028Z,3.62
2018-09-01T09:18:03.710Z,3.02
2018-09-01T09:20:34.392Z,2.83
2018-09-01T09:23:06.141Z,2.77
2018-09-01T09:25:36.820Z,2.60
2018-09-01T09:28:07.483Z,2.92
2018-09-01T09:30:38.205Z,3.08
2018-09-01T09:33:08.931Z,2.60
2018-09-01T09:35:39.634Z,2.80
2018-09-01T09:38:10.304Z,2.45
2018-09-01T09:40:40.754Z,9.23
2018-09-01T09:43:11.322Z,5.00
2018-09-01T09:45:41.739Z,5.83
2018-09-01T09:48:12.115Z,4.55
2018-09-01T09:50:42.234Z,4.62
2018-09-01T09:53:12.633Z,1.40
2018-09-01T09:55:42.760Z,7.47
2018-09-01T09:58:13.799Z,1.40
2018-09-01T10:00:49.743Z,1.15
2018-09-01T10:03:20.056Z,2.40
2018-09-01T10:05:50.458Z,1.40
2018-09-01T10:08:20.827Z,1.30
2018-09-01T10:10:51.515Z,1.60
2018-09-01T10:13:22.347Z,1.85
2018-09-01T10:15:53.065Z,15.15
2018-09-01T10:18:23.920Z,21.15
2018-09-01T10:20:54.591Z,2.37
2018-09-01T10:23:25.228Z,1.67
2018-09-01T10:25:57.031Z,1.40
2018-09-01T10:28:29.007Z,1.52
2018-09-01T10:31:02.287Z,1.80
2018-09-01T10:33:34.688Z,1.90
2018-09-01T10:36:05.915Z,1.70
2018-09-01T10:38:37.089Z,1.57
2018-09-01T10:41:07.779Z,1.10
2018-09-01T10:43:38.475Z,1.30
2018-09-01T10:46:09.122Z,1.10
2018-09-01T10:48:39.823Z,1.00
2018-09-01T10:51:10.481Z,1.87
2018-09-01T10:53:41.377Z,1.02
2018-09-01T10:56:12.045Z,1.20
2018-09-01T10:58:42.715Z,1.50
2018-09-01T11:01:13.566Z,1.17
2018-09-01T11:03:44.273Z,1.15
2018-09-01T11:06:14.907Z,1.47
2018-09-01T11:08:45.588Z,1.20
2018-09-01T11:11:16.280Z,1.32
2018-09-01T11:13:46.960Z,0.98
2018-09-01T11:16:17.793Z,1.00
2018-09-01T11:18:48.455Z,0.90
2018-09-01T11:21:19.095Z,1.10
2018-09-01T11:23:49.773Z,0.88
2018-09-01T11:26:20.728Z,1.10
2018-09-01T11:28:51.478Z,1.00
2018-09-01T11:31:22.127Z,1.22
2018-09-01T11:33:53.117Z,1.10
2018-09-01T11:36:23.779Z,1.05
2018-09-01T11:38:54.354Z,0.90
2018-09-01T11:41:24.724Z,1.10
2018-09-01T11:43:55.391Z,1.30
2018-09-01T11:46:26.024Z,0.80
2018-09-01T11:48:56.691Z,0.95
2018-09-01T11:51:27.146Z,0.87
2018-09-01T11:53:58.050Z,1.02
2018-09-01T11:56:28.611Z,0.80
2018-09-01T11:58:59.128Z,1.00
2018-09-01T12:01:29.471Z,0.90
2018-09-01T12:03:59.867Z,0.77
2018-09-01T12:06:30.415Z,1.03
2018-09-01T12:09:00.818Z,1.00
2018-09-01T12:11:31.367Z,0.80
2018-09-01T12:14:01.945Z,0.83
2018-09-01T12:16:32.507Z,1.20
2018-09-01T12:19:02.938Z,0.83
2018-09-01T12:21:33.413Z,0.97
2018-09-01T12:24:04.107Z,0.70
2018-09-01T12:26:34.494Z,1.30
2018-09-01T12:29:05.417Z,1.00
2018-09-01T12:31:35.801Z,1.20
2018-09-01T12:34:06.388Z,1.07
2018-09-01T12:36:36.767Z,0.90
2018-09-01T12:39:07.383Z,0.93
2018-09-01T12:41:37.770Z,0.87
2018-09-01T12:44:08.131Z,1.20
2018-09-01T12:46:38.520Z,0.77
2018-09-01T12:49:08.886Z,1.10
2018-09-01T12:51:39.230Z,0.80
2018-09-01T12:54:09.607Z,0.90
2018-09-01T12:56:40.029Z,0.77
2018-09-01T12:59:10.472Z,1.10
2018-09-01T13:01:40.844Z,1.13
2018-09-01T13:04:11.235Z,0.93
2018-09-01T13:06:41.628Z,0.93
2018-09-01T13:09:12.009Z,0.93
2018-09-01T13:11:42.365Z,1.40
2018-09-01T13:14:12.756Z,1.20
2018-09-01T13:16:43.103Z,1.03
2018-09-01T13:19:13.479Z,0.97
2018-09-01T13:21:43.864Z,0.90
2018-09-01T13:24:14.216Z,1.53
2018-09-01T13:26:44.705Z,1.00
2018-09-01T13:29:15.080Z,0.87
2018-09-01T13:31:45.486Z,1.00
2018-09-01T13:34:15.922Z,1.17
2018-09-01T13:36:46.493Z,0.97
2018-09-01T13:39:16.851Z,1.30
2018-09-01T13:41:47.247Z,1.10
2018-09-01T13:44:17.954Z,1.40
2018-09-01T13:46:48.714Z,1.20
2018-09-01T13:49:19.108Z,1.20
2018-09-01T13:51:49.493Z,1.17
2018-09-01T13:54:20.144Z,1.50
2018-09-01T13:56:50.537Z,1.10
2018-09-01T13:59:20.879Z,1.00
2018-09-01T14:01:51.260Z,0.90
2018-09-01T14:04:21.633Z,1.37
2018-09-01T14:06:52.021Z,1.10
2018-09-01T14:09:22.380Z,1.20
2018-09-01T14:11:52.746Z,1.03
2018-09-01T14:14:23.158Z,1.40
2018-09-01T14:16:53.875Z,1.10
2018-09-01T14:19:24.268Z,1.10
2018-09-01T14:21:54.708Z,1.20
2018-09-01T14:24:25.088Z,1.40
2018-09-01T14:26:55.438Z,1.60
2018-09-01T14:29:25.852Z,1.60
2018-09-01T14:31:56.237Z,1.13
2018-09-01T14:34:26.632Z,1.40
2018-09-01T14:36:56.980Z,1.33
2018-09-01T14:39:27.372Z,1.40
2018-09-01T14:41:57.727Z,1.37
2018-09-01T14:44:28.120Z,1.77
2018-09-01T14:46:58.536Z,1.27
2018-09-01T14:49:29.059Z,2.10
2018-09-01T14:51:59.414Z,1.17
2018-09-01T14:54:29.791Z,1.30
2018-09-01T14:57:00.166Z,1.60
2018-09-01T14:59:30.588Z,1.30
2018-09-01T15:02:00.948Z,1.23
2018-09-01T15:04:31.352Z,1.40
2018-09-01T15:07:01.740Z,1.60
2018-09-01T15:09:32.115Z,1.80
2018-09-01T15:12:02.559Z,1.50
2018-09-01T15:14:32.899Z,1.47
2018-09-01T15:17:03.392Z,1.43
2018-09-01T15:19:34.141Z,1.70
2018-09-01T15:22:05.055Z,1.80
2018-09-01T15:24:35.413Z,1.67
2018-09-01T15:27:06.211Z,1.80
2018-09-01T15:29:36.591Z,1.70
2018-09-01T15:32:07.023Z,1.70
2018-09-01T15:34:37.376Z,1.20
2018-09-01T15:37:07.770Z,1.37
2018-09-01T15:39:38.158Z,1.50
2018-09-01T15:42:08.547Z,1.50
2018-09-01T15:44:38.959Z,1.47
2018-09-01T15:47:09.522Z,1.40
2018-09-01T15:49:39.911Z,1.70
2018-09-01T15:52:10.290Z,1.50
2018-09-01T15:54:40.653Z,1.40
2018-09-01T15:57:11.063Z,1.50
2018-09-01T15:59:41.723Z,1.98
2018-09-01T16:02:12.123Z,1.93
2018-09-01T16:04:42.483Z,1.37
2018-09-01T16:07:12.871Z,1.63
2018-09-01T16:09:43.231Z,1.50
2018-09-01T16:12:13.605Z,1.70
2018-09-01T16:14:43.971Z,1.77
2018-09-01T16:17:14.350Z,2.07
2018-09-01T16:19:44.740Z,1.70
2018-09-01T16:22:15.128Z,2.00
2018-09-01T16:24:45.671Z,1.60
2018-09-01T16:27:16.361Z,1.40
2018-09-01T16:29:47.005Z,1.73
2018-09-01T16:32:18.402Z,1.53
2018-09-01T16:34:48.947Z,2.07
2018-09-01T16:37:19.375Z,1.60
2018-09-01T16:39:49.769Z,1.83
2018-09-01T16:42:20.136Z,2.13
2018-09-01T16:44:50.518Z,1.97
2018-09-01T16:47:20.905Z,2.30
2018-09-01T16:49:51.256Z,1.67
2018-09-01T16:52:21.659Z,1.87
2018-09-01T16:54:52.022Z,1.80
2018-09-01T16:57:22.399Z,1.60
2018-09-01T16:59:52.771Z,1.80
2018-09-01T17:02:23.155Z,2.03
2018-09-01T17:04:53.864Z,1.83
2018-09-01T17:07:24.238Z,2.30
2018-09-01T17:09:54.596Z,2.60
2018-09-01T17:12:25.014Z,2.00
2018-09-01T17:14:55.387Z,1.97
2018-09-01T17:17:25.770Z,1.50
2018-09-01T17:19:56.132Z,2.77
2018-09-01T17:22:26.812Z,3.50
2018-09-01T17:24:57.449Z,2.95
2018-09-01T17:27:27.830Z,2.50
2018-09-01T17:29:58.211Z,2.27
2018-09-01T17:32:28.587Z,2.30
2018-09-01T17:34:58.945Z,2.00
2018-09-01T17:37:29.651Z,3.25
2018-09-01T17:40:00.335Z,2.00
2018-09-01T17:42:30.687Z,1.50
2018-09-01T17:45:01.369Z,1.70
2018-09-01T17:47:31.756Z,2.30
2018-09-01T17:50:02.618Z,2.67
2018-09-01T17:52:33.274Z,2.67
2018-09-01T17:55:03.723Z,1.90
2018-09-01T17:57:34.438Z,1.55
2018-09-01T18:00:05.389Z,1.70
2018-09-01T18:02:35.822Z,1.50
2018-09-01T18:05:07.106Z,1.80
2018-09-01T18:07:37.771Z,1.30
2018-09-01T18:10:09.160Z,1.60
2018-09-01T18:12:39.810Z,1.50
2018-09-01T18:15:10.496Z,1.75
2018-09-01T18:17:41.220Z,3.08
2018-09-01T18:20:11.867Z,3.27
2018-09-01T18:22:42.548Z,3.30
2018-09-01T18:25:13.235Z,2.95
2018-09-01T18:27:43.876Z,2.60
2018-09-01T18:30:14.583Z,2.67
2018-09-01T18:32:45.219Z,2.10
2018-09-01T18:35:15.913Z,2.30
2018-09-01T18:37:47.088Z,1.70
2018-09-01T18:40:17.767Z,1.92
2018-09-01T18:42:48.417Z,2.15
2018-09-01T18:45:19.090Z,2.08
2018-09-01T18:47:49.732Z,2.30
2018-09-01T18:50:20.404Z,1.90
2018-09-01T18:52:51.064Z,1.75
2018-09-01T18:55:21.736Z,2.05
2018-09-01T18:57:52.444Z,2.17
2018-09-01T19:00:23.319Z,2.02
2018-09-01T19:02:54.019Z,1.82
2018-09-01T19:05:24.896Z,1.87
2018-09-01T19:07:55.572Z,1.75
2018-09-01T19:10:26.242Z,1.37
2018-09-01T19:12:55.724Z,1.65
2018-09-01T19:15:26.768Z,2.10
2018-09-01T19:17:57.423Z,2.33
2018-09-01T19:20:28.122Z,1.98
2018-09-01T19:22:58.771Z,2.58
2018-09-01T19:25:29.459Z,2.25
2018-09-01T19:28:00.092Z,2.42
2018-09-01T19:30:30.761Z,2.27
2018-09-01T19:33:01.420Z,2.20
2018-09-01T19:35:32.069Z,2.35
2018-09-01T19:38:03.174Z,2.50
2018-09-01T19:40:33.856Z,3.08
2018-09-01T19:43:04.875Z,2.65
2018-09-01T19:45:35.720Z,2.80
2018-09-01T19:48:06.472Z,2.92
2018-09-01T19:50:37.120Z,3.40
2018-09-01T19:53:07.905Z,3.12
2018-09-01T19:55:38.760Z,5.15
2018-09-01T19:58:09.484Z,5.67
2018-09-01T20:00:40.176Z,6.97
2018-09-01T20:03:10.827Z,7.20
2018-09-01T20:05:41.544Z,6.72
2018-09-01T20:08:12.216Z,7.37
2018-09-01T20:10:42.900Z,5.58
2018-09-01T20:13:13.579Z,5.80
2018-09-01T20:15:44.243Z,6.00
2018-09-01T20:18:14.940Z,6.42
2018-09-01T20:20:45.626Z,6.12
2018-09-01T20:23:16.267Z,5.33
2018-09-01T20:25:47.287Z,4.90
2018-09-01T20:28:17.934Z,5.60
2018-09-01T20:30:48.664Z,4.20
2018-09-01T20:33:19.303Z,3.72
2018-09-01T20:35:55.048Z,2.62
2018-09-01T20:38:27.150Z,3.10
2018-09-01T20:40:57.829Z,2.90
2018-09-01T20:43:28.485Z,5.30
2018-09-01T20:45:59.183Z,6.83
2018-09-01T20:48:29.839Z,4.42
2018-09-01T20:51:00.511Z,3.25
2018-09-01T20:53:31.187Z,3.15
2018-09-01T20:56:01.845Z,3.85
2018-09-01T20:58:32.540Z,4.33
2018-09-01T21:01:03.589Z,4.28
2018-09-01T21:03:34.266Z,3.20
2018-09-01T21:06:05.261Z,2.85
2018-09-01T21:08:35.928Z,2.87
2018-09-01T21:11:07.099Z,3.25
2018-09-01T21:13:37.782Z,2.72
2018-09-01T21:16:08.415Z,2.62
2018-09-01T21:18:39.088Z,3.25
2018-09-01T21:21:09.732Z,4.25
2018-09-01T21:23:40.412Z,3.55
2018-09-01T21:26:11.064Z,3.40
2018-09-01T21:28:41.754Z,3.62
2018-09-01T21:31:12.436Z,3.00
2018-09-01T21:33:43.151Z,2.90
2018-09-01T21:36:13.874Z,3.00
2018-09-01T21:38:44.520Z,2.40
2018-09-01T21:41:15.196Z,3.72
2018-09-01T21:43:45.867Z,3.20
2018-09-01T21:46:16.544Z,2.87
2018-09-01T21:48:47.220Z,3.35
2018-09-01T21:51:17.868Z,2.85
2018-09-01T21:53:48.542Z,2.75
2018-09-01T21:56:19.210Z,3.25
2018-09-01T21:58:49.883Z,3.40
2018-09-01T22:01:25.834Z,3.12
2018-09-01T22:03:56.507Z,2.92
2018-09-01T22:06:27.147Z,3.05
2018-09-01T22:08:57.818Z,3.40
2018-09-01T22:11:28.477Z,3.08
2018-09-01T22:13:59.159Z,2.72
2018-09-01T22:16:29.851Z,3.15
2018-09-01T22:19:00.495Z,2.90
2018-09-01T22:21:31.177Z,3.40
2018-09-01T22:24:02.163Z,3.00
2018-09-01T22:26:32.836Z,3.00
2018-09-01T22:29:03.536Z,3.20
2018-09-01T22:31:34.209Z,3.27
2018-09-01T22:34:04.896Z,3.33
2018-09-01T22:36:35.558Z,2.80
2018-09-01T22:39:06.544Z,3.25
2018-09-01T22:41:37.199Z,3.47
2018-09-01T22:44:07.872Z,3.83
2018-09-01T22:46:38.558Z,3.40
2018-09-01T22:49:09.210Z,3.10
2018-09-01T22:51:39.964Z,3.20
2018-09-01T22:54:10.729Z,3.45
2018-09-01T22:56:41.395Z,3.52
2018-09-01T22:59:12.435Z,2.90
2018-09-01T23:01:43.144Z,3.33
2018-09-01T23:04:13.880Z,3.15
2018-09-01T23:06:44.561Z,3.52
2018-09-01T23:09:15.208Z,3.27
2018-09-01T23:11:45.876Z,3.08
2018-09-01T23:14:16.558Z,3.52
2018-09-01T23:16:47.405Z,3.20
2018-09-01T23:19:18.087Z,3.20
2018-09-01T23:21:48.799Z,3.17
2018-09-01T23:24:19.481Z,3.42
2018-09-01T23:26:50.134Z,3.47
2018-09-01T23:29:21.028Z,3.50
2018-09-01T23:31:51.685Z,3.08
2018-09-01T23:34:22.351Z,2.90
2018-09-01T23:36:53.056Z,3.22
2018-09-01T23:39:23.751Z,3.58
2018-09-01T23:41:54.552Z,3.25
2018-09-01T23:44:25.220Z,3.62
2018-09-01T23:46:56.046Z,3.05
2018-09-01T23:49:26.727Z,3.05
2018-09-01T23:51:57.384Z,3.60
2018-09-01T23:54:28.055Z,2.98
2018-09-01T23:56:58.737Z,3.40
2018-09-01T23:59:29.407Z,3.20
